Flight Track Log - Related Links

Times and Time Zones

All times are in EDT time to prevent confusion due to time zone crossing. See the CSN6552 flight status page for this flight to view local times or setup timezone preferences in your user account.

Time Position Orientation Groundspeed Altitude Reporting Facility
EDT Latitude Longitude Course Direction KTS MPH feet Rate Location/Type
Sat 10:45:00 AM 38.2831 122.2275 37° Northeast  Level Estimated
Sat 10:46:00 AM 39.1582 123.1043 38° Northeast  Level Estimated
Sat 10:47:00 AM 40.0265 124.0032 38° Northeast  Level Estimated
Sat 10:48:00 AM 40.8877 124.9251 39° Northeast  Level Estimated
Sat 10:49:00 AM 41.7414 125.8712 39° Northeast  Level Estimated
Sat 10:50:00 AM 42.5871 126.8427 40° Northeast  Level Estimated
Sat 10:51:00 AM 43.4244 127.8407 41° Northeast  Level Estimated
Sat 10:52:00 AM 44.2528 128.8666 41° Northeast  Level Estimated
Sat 10:53:00 AM 45.0717 129.9217 42° Northeast  Level Estimated
Sat 10:54:00 AM 45.8806 131.0072 43° Northeast  Level Estimated
Sat 10:55:00 AM 46.6789 132.1247 44° Northeast  Level Estimated
Sat 10:56:00 AM 47.4661 133.2753 44° Northeast  Level Estimated
Sat 10:57:00 AM 48.2413 134.4608 45° Northeast  Level Estimated
Sat 10:58:00 AM 49.0041 135.6823 46° Northeast  Level Estimated
Sat 10:59:00 AM 49.7535 136.9416 47° Northeast  Level Estimated
Sat 11:00:00 AM 50.4888 138.2400 48° Northeast  Level Estimated
Sat 11:01:00 AM 51.2093 139.5790 49° Northeast  Level Estimated
Sat 11:02:00 AM 51.9140 140.9601 50° Northeast  Level Estimated
Sat 11:03:00 AM 52.6020 142.3848 51° Northeast  Level Estimated
Sat 11:04:00 AM 53.2724 143.8543 52° Northeast  Level Estimated
Sat 11:05:00 AM 53.9241 145.3699 53° Northeast  Level Estimated
Sat 11:06:00 AM 54.5562 146.9329 55° Northeast  Level Estimated
Sat 11:07:00 AM 55.1675 148.5443 56° Northeast  Level Estimated
Sat 11:08:00 AM 55.7569 150.2050 57° Northeast  Level Estimated
Sat 11:09:00 AM 56.3232 151.9155 59° Northeast  Level Estimated
Sat 11:10:00 AM 56.8653 153.6765 60° Northeast  Level Estimated
Sat 11:11:00 AM 57.3819 155.4881 62° Northeast  Level Estimated
Sat 11:12:00 AM 57.8717 157.3500 63° Northeast  Level Estimated
Sat 11:13:00 AM 58.3335 159.2618 65° Northeast  Level Estimated
Sat 11:14:00 AM 58.7661 161.2227 66° East  Level Estimated
Sat 11:15:00 AM 59.1682 163.2312 68° East  Level Estimated
Sat 11:16:00 AM 59.5386 165.2856 70° East  Level Estimated
Sat 11:17:00 AM 59.8762 167.3835 71° East  Level Estimated
Sat 11:18:00 AM 60.1797 169.5224 73° East  Level Estimated
Sat 11:19:00 AM 60.4481 171.6988 75° East  Level Estimated
Sat 11:20:00 AM 60.6805 173.9090 77° East  Level Estimated
Sat 11:21:00 AM 60.8760 176.1488 79° East  Level Estimated
Sat 11:22:00 AM 61.0339 178.4135 81° East  Level Estimated
Sat 11:23:00 AM 61.1535 -179.3019 83° East  Level Estimated
Sat 11:24:00 AM 61.2343 -177.0028 85° East  Level Estimated
Sat 11:25:00 AM 61.2760 -174.6946 87° East  Level Estimated
Sat 11:26:00 AM 61.2784 -172.3833 89° East  Level Estimated
Sat 11:27:00 AM 61.2416 -170.0744 91° East  Level Estimated
Sat 11:28:00 AM 61.1657 -167.7738 93° East  Level Estimated
Sat 11:29:00 AM 61.0509 -165.4871 95° East  Level Estimated
Sat 11:30:00 AM 60.8978 -163.2196 97° East  Level Estimated
Sat 11:31:00 AM 60.7070 -160.9765 99° East  Level Estimated
Sat 11:32:00 AM 60.4791 -158.7623 101° East  Level Estimated
Sat 11:33:00 AM 60.2151 -156.5815 103° East  Level Estimated
Sat 11:34:00 AM 59.9160 -154.4378 105° East  Level Estimated
Sat 11:35:00 AM 59.5826 -152.3345 107° East  Level Estimated
Sat 11:36:00 AM 59.2163 -150.2745 108° East  Level Estimated
Sat 11:37:00 AM 58.8180 -148.2602 110° East  Level Estimated
Sat 11:38:00 AM 58.3892 -146.2933 112° Southeast  Level Estimated
Sat 11:39:00 AM 57.9309 -144.3753 114° Southeast  Level Estimated
Sat 11:40:00 AM 57.4445 -142.5071 115° Southeast  Level Estimated
Sat 11:41:00 AM 56.9312 -140.6893 117° Southeast  Level Estimated
Sat 11:42:00 AM 56.3923 -138.9220 118° Southeast  Level Estimated
Sat 11:43:00 AM 55.8289 -137.2051 120° Southeast  Level Estimated
Sat 11:44:00 AM 55.2423 -135.5383 121° Southeast  Level Estimated
Sat 11:45:00 AM 54.6337 -133.9208 123° Southeast  Level Estimated
Sat 11:46:00 AM 54.0042 -132.3518 124° Southeast  Level Estimated
Sat 11:47:00 AM 53.3548 -130.8303 125° Southeast  Level Estimated
Sat 11:48:00 AM 52.6867 -129.3551 126° Southeast  Level Estimated
Sat 11:49:00 AM 52.0009 -127.9249 128° Southeast  Level Estimated
Sat 11:50:00 AM 51.2982 -126.5384 129° Southeast  Level Estimated
Sat 11:51:00 AM 50.5797 -125.1942 130° Southeast  Level Estimated
Sat 11:52:00 AM 49.8461 -123.8908 131° Southeast  Level Estimated
Sat 11:53:00 AM 49.1010 -122.6310 132° Southeast  Level Estimated
Sat 11:54:00 AM 49.1010 -122.6310 North  Level Estimated
Sat 11:55:00 AM 49.1010 -122.6310 North  Level Estimated
Sat 11:56:00 AM 49.1010 -122.6310 North  Level Estimated
Sat 11:57:00 AM 49.1010 -122.6310 North  Level Estimated
Sat 11:58:00 AM 49.1010 -122.6310 North  Level Estimated
Sat 11:59:00 AM 49.1010 -122.6310 North  Level Estimated
Sat 12:00:00 PM 49.1010 -122.6310 North  Level Estimated
Sat 12:01:00 PM 49.1010 -122.6310 North  Level Estimated
Sat 12:02:00 PM 49.1010 -122.6310 North  Level Estimated
Sat 12:03:00 PM 49.1010 -122.6310 North  Level Estimated
Sat 12:04:00 PM 49.1010 -122.6310 North  Level Estimated
Sat 12:05:00 PM 49.1010 -122.6310 North  Level Estimated
Sat 12:06:00 PM 49.1010 -122.6310 North  Level Estimated
Sat 12:07:00 PM 49.1010 -122.6310 North  Level Estimated

Login

Don't have an account? Register now (free) for customized features, flight alerts, and more!